createdAt,value
2019-04-23T00:02:58.972Z,14.55
2019-04-23T00:05:30.328Z,14.50
2019-04-23T00:07:55.908Z,14.49
2019-04-23T00:10:29.388Z,14.48
2019-04-23T00:12:59.289Z,14.45
2019-04-23T00:15:58.643Z,14.43
2019-04-23T00:18:30.147Z,14.43
2019-04-23T00:21:01.567Z,14.43
2019-04-23T00:23:35.067Z,14.42
2019-04-23T00:26:14.775Z,14.40
2019-04-23T00:28:50.275Z,14.39
2019-04-23T00:31:32.894Z,14.38
2019-04-23T00:33:51.172Z,14.38
2019-04-23T00:36:32.018Z,14.36
2019-04-23T00:38:54.009Z,14.34
2019-04-23T00:41:39.186Z,14.32
2019-04-23T00:44:15.097Z,14.29
2019-04-23T00:46:45.171Z,14.28
2019-04-23T00:49:19.768Z,14.26
2019-04-23T00:51:56.969Z,14.22
2019-04-23T00:54:43.459Z,14.21
2019-04-23T00:57:01.158Z,14.20
2019-04-23T00:59:38.709Z,14.17
2019-04-23T01:02:02.727Z,14.16
2019-04-23T01:04:41.869Z,14.11
2019-04-23T01:07:14.614Z,14.11
2019-04-23T01:09:56.122Z,14.11
2019-04-23T01:12:31.270Z,14.10
2019-04-23T01:14:57.373Z,14.11
2019-04-23T01:17:51.121Z,14.12
2019-04-23T01:20:08.071Z,14.11
2019-04-23T01:22:25.152Z,14.11
2019-04-23T01:25:11.076Z,14.10
2019-04-23T01:28:04.440Z,14.11
2019-04-23T01:30:34.313Z,14.11
2019-04-23T01:33:12.249Z,14.10
2019-04-23T01:36:01.487Z,14.10
2019-04-23T01:38:18.465Z,14.08
2019-04-23T01:40:46.140Z,14.06
2019-04-23T01:43:26.425Z,14.04
2019-04-23T01:45:56.167Z,14.03
2019-04-23T01:48:35.708Z,14.02
2019-04-23T01:51:02.538Z,13.98
2019-04-23T01:53:42.324Z,13.98
2019-04-23T01:56:14.006Z,13.97
2019-04-23T02:01:25.806Z,13.92
2019-04-23T02:04:07.771Z,13.91
2019-04-23T02:09:18.386Z,13.91
2019-04-23T02:11:42.159Z,13.90
2019-04-23T02:14:14.348Z,13.88
2019-04-23T02:16:45.935Z,13.86
2019-04-23T02:19:23.838Z,13.84
2019-04-23T02:22:06.865Z,13.82
2019-04-23T02:27:13.527Z,13.80
2019-04-23T02:29:57.431Z,13.79
2019-04-23T02:32:19.600Z,13.79
2019-04-23T02:37:45.886Z,13.76
2019-04-23T02:40:32.119Z,13.73
2019-04-23T02:45:29.737Z,13.71
2019-04-23T02:50:40.499Z,13.65
2019-04-23T02:53:20.223Z,13.63
2019-04-23T02:56:07.690Z,13.63
2019-04-23T03:01:06.405Z,13.59
2019-04-23T03:08:33.029Z,13.60
2019-04-23T03:13:51.058Z,13.57
2019-04-23T03:16:33.885Z,13.57
2019-04-23T03:27:18.801Z,13.50
2019-04-23T03:29:49.738Z,13.49
2019-04-23T03:42:33.100Z,13.44
2019-04-23T03:50:14.784Z,13.39
2019-04-23T03:52:46.537Z,13.39
2019-04-23T03:55:30.287Z,13.37
2019-04-23T03:57:52.232Z,13.38
2019-04-23T04:00:33.356Z,13.36
2019-04-23T04:05:45.507Z,13.31
2019-04-23T04:08:13.723Z,13.30
2019-04-23T04:13:22.762Z,13.34
2019-04-23T04:15:57.243Z,13.34
2019-04-23T04:23:45.384Z,13.38
2019-04-23T04:26:07.102Z,13.45
2019-04-23T04:31:16.254Z,13.52
2019-04-23T04:36:28.139Z,14.00
2019-04-23T04:38:57.198Z,14.19
2019-04-23T04:41:31.954Z,14.24
2019-04-23T04:44:17.146Z,14.32
2019-04-23T04:46:47.768Z,14.43
2019-04-23T04:49:15.086Z,14.55
2019-04-23T04:56:49.770Z,14.86
2019-04-23T04:59:26.247Z,14.98
2019-04-23T05:02:09.366Z,15.05
2019-04-23T05:07:11.038Z,15.12
2019-04-23T05:09:48.551Z,15.22
2019-04-23T05:12:18.949Z,15.30
2019-04-23T05:14:59.654Z,15.37
2019-04-23T05:17:27.969Z,15.43
2019-04-23T05:19:58.956Z,15.49
2019-04-23T05:22:30.429Z,15.52
2019-04-23T05:24:57.274Z,15.54
2019-04-23T05:27:40.638Z,15.60
2019-04-23T05:30:15.247Z,15.67
2019-04-23T05:32:43.752Z,15.73
2019-04-23T05:35:20.286Z,15.76
2019-04-23T05:37:59.029Z,15.82
2019-04-23T05:40:30.516Z,15.84
2019-04-23T05:42:59.037Z,15.77
2019-04-23T05:50:52.527Z,15.54
2019-04-23T05:53:13.431Z,15.47
2019-04-23T05:55:51.740Z,15.40
2019-04-23T05:58:23.239Z,15.31
2019-04-23T06:01:08.744Z,15.24
2019-04-23T06:03:30.920Z,15.24
2019-04-23T06:06:11.227Z,15.28
2019-04-23T06:08:39.109Z,15.32
2019-04-23T06:11:25.573Z,15.35
2019-04-23T06:13:56.137Z,15.41
2019-04-23T06:16:24.860Z,15.47
2019-04-23T06:18:59.345Z,15.50
2019-04-23T06:21:33.960Z,15.56
2019-04-23T06:24:10.403Z,15.62
2019-04-23T06:26:40.081Z,15.67
2019-04-23T06:29:25.695Z,15.76
2019-04-23T06:36:59.883Z,15.90
2019-04-23T06:39:42.753Z,16.04
2019-04-23T06:42:07.807Z,16.15
2019-04-23T06:44:49.827Z,16.22
2019-04-23T06:47:30.851Z,16.29
2019-04-23T06:52:21.763Z,16.34
2019-04-23T06:57:32.949Z,16.30
2019-04-23T07:00:08.031Z,16.32
2019-04-23T07:02:47.629Z,16.40
2019-04-23T07:05:15.884Z,16.48
2019-04-23T07:07:55.234Z,16.49
2019-04-23T07:10:28.351Z,16.52
2019-04-23T07:12:59.370Z,16.59
2019-04-23T07:18:07.547Z,16.72
2019-04-23T07:20:40.053Z,16.72
2019-04-23T07:23:19.034Z,16.73
2019-04-23T07:25:55.930Z,16.77
2019-04-23T07:28:26.103Z,16.84
2019-04-23T07:31:02.409Z,16.86
2019-04-23T07:33:39.810Z,16.92
2019-04-23T07:36:08.554Z,16.90
2019-04-23T07:38:58.289Z,16.87
2019-04-23T07:41:32.495Z,16.90
2019-04-23T07:44:14.278Z,16.86
2019-04-23T07:46:47.755Z,16.85
2019-04-23T07:49:11.405Z,16.85
2019-04-23T07:51:46.886Z,16.91
2019-04-23T07:54:22.690Z,16.99
2019-04-23T07:57:07.566Z,17.01
2019-04-23T07:59:36.339Z,17.00
2019-04-23T08:02:06.224Z,17.04
2019-04-23T08:04:46.182Z,17.13
2019-04-23T08:09:48.059Z,17.24
2019-04-23T08:12:25.516Z,17.29
2019-04-23T08:14:53.544Z,17.32
2019-04-23T08:17:22.593Z,17.32
2019-04-23T08:20:00.961Z,17.31
2019-04-23T08:22:37.225Z,17.34
2019-04-23T08:25:19.121Z,17.36
2019-04-23T08:27:48.578Z,17.35
2019-04-23T08:30:25.514Z,17.32
2019-04-23T08:33:03.693Z,17.35
2019-04-23T08:35:36.204Z,17.34
2019-04-23T08:43:38.915Z,17.55
2019-04-23T08:46:29.723Z,17.62
2019-04-23T08:48:58.699Z,17.69
2019-04-23T08:54:03.430Z,17.78
2019-04-23T08:56:41.127Z,17.84
2019-04-23T08:59:17.772Z,17.95
2019-04-23T09:01:59.434Z,18.04
2019-04-23T09:04:21.788Z,18.04
2019-04-23T09:06:53.120Z,17.99
2019-04-23T09:09:30.130Z,17.99
2019-04-23T09:11:58.111Z,17.99
2019-04-23T09:14:31.902Z,18.01
2019-04-23T09:17:11.156Z,18.05
2019-04-23T09:19:54.521Z,18.08
2019-04-23T09:27:27.425Z,18.23
2019-04-23T09:30:00.048Z,18.23
2019-04-23T09:35:14.319Z,18.30
2019-04-23T09:37:47.117Z,18.32
2019-04-23T09:40:47.442Z,18.35
2019-04-23T09:43:06.826Z,18.39
2019-04-23T09:45:50.187Z,18.47
2019-04-23T09:48:10.208Z,18.56
2019-04-23T09:55:53.087Z,18.78
2019-04-23T09:58:30.307Z,18.80
2019-04-23T10:01:21.681Z,18.84
2019-04-23T10:03:43.073Z,18.91
2019-04-23T10:06:09.711Z,18.94
2019-04-23T10:08:43.022Z,19.01
2019-04-23T10:11:11.920Z,19.04
2019-04-23T10:13:45.686Z,19.03
2019-04-23T10:16:21.535Z,19.03
2019-04-23T10:18:55.029Z,19.05
2019-04-23T10:21:29.084Z,19.04
2019-04-23T10:24:01.506Z,19.01
2019-04-23T10:26:34.385Z,19.04
2019-04-23T10:29:09.741Z,19.07
2019-04-23T10:31:42.213Z,19.10
2019-04-23T10:34:17.068Z,19.12
2019-04-23T10:36:49.544Z,19.15
2019-04-23T10:39:26.367Z,19.18
2019-04-23T10:41:57.579Z,19.16
2019-04-23T10:44:35.352Z,19.16
2019-04-23T10:47:58.953Z,19.18
2019-04-23T10:50:52.833Z,19.18
2019-04-23T10:56:11.337Z,19.31
2019-04-23T10:58:32.117Z,19.34
2019-04-23T11:01:05.087Z,19.34
2019-04-23T11:03:53.962Z,19.33
2019-04-23T11:06:21.402Z,19.36
2019-04-23T11:08:40.531Z,19.43
2019-04-23T11:11:21.900Z,19.48
2019-04-23T11:14:04.477Z,19.52
2019-04-23T11:19:04.339Z,19.58
2019-04-23T11:21:42.738Z,19.66
2019-04-23T11:24:35.654Z,19.70
2019-04-23T11:26:49.849Z,19.74
2019-04-23T11:29:27.990Z,19.74
2019-04-23T11:32:35.184Z,19.76
2019-04-23T11:34:47.974Z,19.79
2019-04-23T11:37:03.986Z,19.84
2019-04-23T11:39:45.897Z,19.89
2019-04-23T11:42:32.328Z,19.96
2019-04-23T11:44:49.863Z,19.99
2019-04-23T11:47:58.391Z,20.01
2019-04-23T11:50:01.975Z,20.04
2019-04-23T11:52:36.631Z,20.05
2019-04-23T11:55:03.074Z,20.04
2019-04-23T11:58:02.720Z,20.03
2019-04-23T12:02:49.705Z,19.99
2019-04-23T12:05:41.403Z,20.01
2019-04-23T12:08:17.010Z,20.04
2019-04-23T12:13:35.438Z,20.06
2019-04-23T12:16:00.463Z,20.04
2019-04-23T12:21:12.865Z,20.11
2019-04-23T12:23:50.603Z,20.17
2019-04-23T12:26:19.735Z,20.21
2019-04-23T12:28:53.640Z,20.19
2019-04-23T12:31:26.369Z,20.15
2019-04-23T12:33:59.451Z,20.16
2019-04-23T12:36:39.509Z,20.16
2019-04-23T12:39:11.142Z,20.17
2019-04-23T12:41:43.339Z,20.17
2019-04-23T12:44:17.962Z,20.17
2019-04-23T12:49:44.581Z,20.22
2019-04-23T12:52:13.021Z,20.29
2019-04-23T12:57:18.600Z,20.38
2019-04-23T12:59:50.239Z,20.39
2019-04-23T13:02:33.495Z,20.43
2019-04-23T13:05:04.674Z,20.47
2019-04-23T13:07:38.105Z,20.52
2019-04-23T13:10:13.205Z,20.59
2019-04-23T13:13:04.228Z,20.63
2019-04-23T13:15:17.271Z,20.68
2019-04-23T13:20:23.547Z,20.73
2019-04-23T13:23:01.865Z,20.74
2019-04-23T13:28:13.619Z,20.74
2019-04-23T13:36:00.993Z,20.82
2019-04-23T13:43:40.101Z,20.90
2019-04-23T13:46:23.008Z,20.92
2019-04-23T13:48:41.918Z,20.89
2019-04-23T13:51:31.983Z,20.87
2019-04-23T13:56:40.647Z,20.91
2019-04-23T13:59:05.690Z,20.93
2019-04-23T14:01:42.332Z,20.97
2019-04-23T14:04:21.315Z,21.01
2019-04-23T14:06:49.522Z,21.06
2019-04-23T14:09:31.585Z,21.10
2019-04-23T14:11:51.535Z,21.15
2019-04-23T14:14:43.704Z,21.18
2019-04-23T14:17:18.668Z,21.18
2019-04-23T14:19:38.288Z,21.19
2019-04-23T14:22:51.310Z,21.17
2019-04-23T14:27:26.571Z,21.10
2019-04-23T14:30:05.538Z,21.05
2019-04-23T14:32:29.095Z,21.01
2019-04-23T14:35:19.943Z,20.96
2019-04-23T14:37:54.889Z,20.94
2019-04-23T14:40:21.723Z,20.91
2019-04-23T14:43:02.254Z,20.91
2019-04-23T14:45:47.076Z,20.92
2019-04-23T14:48:04.302Z,20.92
2019-04-23T14:50:46.308Z,20.96
2019-04-23T14:55:57.242Z,21.09
2019-04-23T14:58:31.288Z,21.16
2019-04-23T15:01:16.043Z,21.18
2019-04-23T15:03:39.929Z,21.17
2019-04-23T15:06:29.495Z,21.17
2019-04-23T15:08:50.069Z,21.19
2019-04-23T15:11:26.370Z,21.25
2019-04-23T15:13:52.153Z,21.30
2019-04-23T15:19:11.655Z,21.33
2019-04-23T15:29:02.727Z,21.35
2019-04-23T15:31:57.639Z,21.36
2019-04-23T15:34:23.755Z,21.35
2019-04-23T15:37:13.535Z,21.36
2019-04-23T15:39:38.086Z,21.36
2019-04-23T15:44:49.077Z,21.25
2019-04-23T15:47:36.087Z,21.20
2019-04-23T15:49:59.158Z,21.12
2019-04-23T15:52:37.504Z,21.06
2019-04-23T15:55:01.522Z,21.01
2019-04-23T16:00:25.854Z,20.88
2019-04-23T16:02:17.626Z,20.82
2019-04-23T16:04:51.108Z,20.74
2019-04-23T16:07:41.342Z,20.67
2019-04-23T16:10:28.479Z,20.59
2019-04-23T16:13:02.504Z,20.54
2019-04-23T16:15:35.507Z,20.51
2019-04-23T16:18:23.686Z,20.47
2019-04-23T16:23:21.616Z,20.44
2019-04-23T16:26:01.901Z,20.44
2019-04-23T16:28:42.270Z,20.41
2019-04-23T16:31:08.080Z,20.32
2019-04-23T16:33:39.583Z,20.26
2019-04-23T16:36:19.220Z,20.21
2019-04-23T16:38:52.218Z,20.18
2019-04-23T16:41:24.415Z,20.16
2019-04-23T16:44:07.965Z,20.11
2019-04-23T16:46:31.769Z,20.07
2019-04-23T16:49:15.358Z,20.02
2019-04-23T16:51:59.740Z,19.98
2019-04-23T16:54:19.327Z,19.97
2019-04-23T16:57:12.020Z,19.96
2019-04-23T16:59:18.502Z,19.95
2019-04-23T17:02:01.614Z,19.92
2019-04-23T17:04:30.723Z,19.90
2019-04-23T17:07:02.312Z,19.88
2019-04-23T17:09:46.231Z,19.87
2019-04-23T17:12:10.473Z,19.87
2019-04-23T17:14:49.714Z,19.86
2019-04-23T17:17:15.630Z,19.83
2019-04-23T17:19:50.433Z,19.81
2019-04-23T17:22:24.930Z,19.79
2019-04-23T17:25:05.553Z,19.79
2019-04-23T17:27:41.518Z,19.76
2019-04-23T17:30:11.973Z,19.74
2019-04-23T17:32:46.857Z,19.72
2019-04-23T17:35:23.934Z,19.68
2019-04-23T17:38:00.428Z,19.65
2019-04-23T17:40:30.604Z,19.61
2019-04-23T17:43:01.501Z,19.57
2019-04-23T17:50:58.025Z,19.42
2019-04-23T17:53:26.839Z,19.40
2019-04-23T17:56:08.926Z,19.38
2019-04-23T17:58:35.402Z,19.36
2019-04-23T18:01:22.331Z,19.34
2019-04-23T18:03:55.881Z,19.29
2019-04-23T18:06:37.281Z,19.27
2019-04-23T18:09:11.042Z,19.26
2019-04-23T18:11:31.204Z,19.21
2019-04-23T18:16:48.118Z,19.07
2019-04-23T18:19:16.934Z,19.02
2019-04-23T18:21:58.958Z,18.90
2019-04-23T18:24:27.924Z,18.79
2019-04-23T18:27:06.788Z,18.68
2019-04-23T18:37:29.996Z,18.25
2019-04-23T18:40:00.421Z,18.20
2019-04-23T18:42:40.786Z,18.11
2019-04-23T18:45:16.713Z,18.04
2019-04-23T18:47:47.492Z,18.02
2019-04-23T18:50:24.906Z,17.98
2019-04-23T18:55:37.107Z,17.86
2019-04-23T18:58:02.255Z,17.82
2019-04-23T19:00:45.667Z,17.74
2019-04-23T19:03:19.724Z,17.68
2019-04-23T19:06:00.341Z,17.64
2019-04-23T19:08:54.172Z,17.59
2019-04-23T19:11:38.429Z,17.55
2019-04-23T19:14:03.140Z,17.48
2019-04-23T19:16:41.609Z,17.43
2019-04-23T19:19:09.641Z,17.40
2019-04-23T19:22:06.913Z,17.38
2019-04-23T19:24:14.065Z,17.36
2019-04-23T19:29:36.865Z,17.24
2019-04-23T19:31:56.896Z,17.20
2019-04-23T19:39:38.188Z,17.05
2019-04-23T19:42:26.705Z,17.01
2019-04-23T19:49:50.768Z,16.95
2019-04-23T19:52:52.081Z,16.95
2019-04-23T19:55:00.043Z,16.92
2019-04-23T19:57:54.948Z,16.89
2019-04-23T20:00:14.073Z,16.87
2019-04-23T20:03:04.019Z,16.88
2019-04-23T20:05:13.523Z,16.85
2019-04-23T20:08:04.140Z,16.82
2019-04-23T20:10:27.656Z,16.79
2019-04-23T20:13:02.181Z,16.77
2019-04-23T20:15:52.147Z,16.75
2019-04-23T20:18:05.140Z,16.77
2019-04-23T20:23:29.846Z,16.75
2019-04-23T20:28:51.184Z,16.72
2019-04-23T20:32:06.026Z,16.74
2019-04-23T20:34:14.124Z,16.73
2019-04-23T20:49:43.012Z,16.75
2019-04-23T20:52:07.124Z,16.76
2019-04-23T21:00:04.747Z,16.79
2019-04-23T21:10:34.808Z,16.81
2019-04-23T21:18:15.984Z,16.85
2019-04-23T21:25:49.047Z,16.84
2019-04-23T21:28:35.906Z,16.87
2019-04-23T21:31:09.033Z,16.87
2019-04-23T21:33:43.832Z,16.84
2019-04-23T21:39:40.764Z,16.83
2019-04-23T21:41:56.775Z,16.83
2019-04-23T21:44:46.814Z,16.81
2019-04-23T21:47:06.025Z,16.82
2019-04-23T21:49:57.965Z,16.85
2019-04-23T21:52:11.447Z,16.88
2019-04-23T21:57:31.006Z,16.94
2019-04-23T21:59:55.475Z,16.95
2019-04-23T22:02:38.469Z,16.96
2019-04-23T22:05:09.058Z,16.95
2019-04-23T22:08:20.546Z,16.95
2019-04-23T22:10:09.199Z,16.96
2019-04-23T22:13:09.502Z,16.95
2019-04-23T22:15:22.252Z,16.95
2019-04-23T22:17:50.200Z,16.96
2019-04-23T22:25:56.465Z,16.94
2019-04-23T22:28:40.361Z,16.94
2019-04-23T22:31:23.140Z,16.94
2019-04-23T22:34:01.504Z,16.95
2019-04-23T22:36:20.998Z,16.95
2019-04-23T22:39:11.584Z,16.97
2019-04-23T22:41:49.115Z,16.98
2019-04-23T22:44:32.903Z,16.97
2019-04-23T22:47:03.702Z,16.98
2019-04-23T22:49:47.419Z,16.96
2019-04-23T22:52:23.077Z,16.94
2019-04-23T22:55:02.062Z,16.90
2019-04-23T23:00:19.362Z,16.89
2019-04-23T23:06:10.976Z,16.91
2019-04-23T23:08:31.241Z,16.93
2019-04-23T23:11:12.294Z,16.94
2019-04-23T23:14:07.114Z,16.95
2019-04-23T23:16:27.821Z,16.97
2019-04-23T23:19:14.521Z,16.97
2019-04-23T23:21:59.582Z,16.97
2019-04-23T23:24:18.630Z,16.98
2019-04-23T23:29:50.195Z,16.96
2019-04-23T23:32:24.460Z,16.95
2019-04-23T23:35:14.624Z,16.96
2019-04-23T23:37:37.226Z,16.95
2019-04-23T23:40:20.318Z,16.95
2019-04-23T23:42:56.194Z,16.94
2019-04-23T23:48:08.049Z,16.94
2019-04-23T23:53:29.604Z,16.90
2019-04-23T23:56:12.719Z,16.88
2019-04-23T23:58:53.978Z,16.86
